Aircraft
UPR1004 PR-QAB Citation
TNCM
Princess Juliana International Airport
SVMI
Simón Bolívar International Airport
Pilot:: Jair
Aircraft:: Asobo Cessna Citation Longitude Passengers
Alternate: SVBS
Network: ivao
FLIGHT DETAILS
Distance: 501nm Duration 01h 37m
Cruise Speed: Flight Level: 35000
Validation: Validated Type Regular
Flight Fuel
ZFW: 11284
Block Fuel/Initial FOB: 4245
Flight Fuel: 1939
Cargo
Passengers: 6
Cargo: 98
ROUTE
ROUTE: dct
REMARKS:
DATE
Date: 26-07-31
Departure Time: 1826
Cargo: 98
FLIGHT DETAILS
Crashed: No
Validator Comments: Validado por Rafael
Flight Rating: 95
LANDING ANALYSIS
Landing wind: 89º/7 kt
Landing heading: 103º
Landing VS:: -156 ft/min
Landing IAS:: 110 kt
Landing Force G: 1 G
Landing Bank: -1
Landing Pitch: -2
Landing Flaps: 100
Navigation Lights: ON
Landing Lights: ON
Beacon Lights: ON
Strobe Lights: ON
viserfly

ALTITUDE CHART

viserfly

MAIN EVENTS

DATE EVENT IAS ALTITUDE
2026-07-31 18:25:10 FLYacars version 1.3.5 10 16
2026-07-31 18:25:11 Aircraft boarding in progress 10 16
2026-07-31 18:25:11 FLAPS 33% 10 16
2026-07-31 18:25:11 Navigation Lights ON 10 16
2026-07-31 18:25:11 Beacon Lights ON 10 16
2026-07-31 18:25:11 Strobe Lights ON 10 16
2026-07-31 18:25:11 Landing Lights ON 10 16
2026-07-31 18:25:11 Starting Engine 2 10 16
2026-07-31 18:25:11 Starting Engine 1 10 16
2026-07-31 18:25:22 Taxi Lights ON 11 16
2026-07-31 18:26:26 Aircraft taxiing to runway 15 16
2026-07-31 18:26:48 Detected Take-off roll, HDG 88, IAS 136kt, GS 128kt, G-force 1.0g, Pitch -6.6deg, Bank -0.1deg, Wind 110/15kt, Temp 30°C 136 17
2026-07-31 18:26:48 Airborne 136 17
2026-07-31 18:26:52 Gear UP, IAS 154kt, GS 147kt, ALT 30ft AGL 154 42
2026-07-31 18:26:53 Taxi Lights OFF 157 57
2026-07-31 18:27:22 FLAPS 0% 194kt, ALT 1723ft 194 1723
2026-07-31 18:31:37 Landing Lights OFF 239 10668
2026-07-31 18:43:23 Overspeed flag 306 34267
2026-07-31 18:44:33 Aircraft on Top Of Climb at 36483ft, IAS 292kt, GS 465kt, HDG 222deg, TAT -45deg, WIND 207/37kt 292 36483
2026-07-31 19:34:00 Aircraft on Top Of Descent at 34499ft, IAS 240kt, GS 413kt, HDG 151deg, TAT -39deg, WIND 242/16kt 240 34499
2026-07-31 19:51:07 Landing Lights ON 184 10072
2026-07-31 19:53:29 FLAPS 33% 182kt, ALT 5367ft 182 5367
2026-07-31 19:53:33 FLAPS 66% 181kt, ALT 5239ft 181 5239
2026-07-31 19:54:44 Gear DOWN, IAS 163kt, GS 174kt, ALT 3323ft AGL 163 3323
2026-07-31 19:54:48 FLAPS 100% 166kt, ALT 3321ft 166 3321
2026-07-31 19:54:54 Taxi Lights ON 156 3374
2026-07-31 20:04:04 Landed at destination with a landing rate of -156fpm, G-force 1.0g, Pitch -2.3deg, Bank -0.8deg, HDG 103deg, IAS 110kt, GS 108kt, Wind 089/07kt, Temp 30°C 110 203
2026-07-31 20:04:28 Aircraft taxiing to apron 32 193
2026-07-31 20:07:24 Landing Lights OFF 0 181
2026-07-31 20:08:09 FLAPS 66% 3 179
2026-07-31 20:08:10 FLAPS 33% 3 179
2026-07-31 20:08:10 FLAPS 0% 3 179
2026-07-31 20:10:27 Beacon Lights OFF 0 196
2026-07-31 20:10:40 Strobe Lights OFF 0 196
2026-07-31 20:10:41 Taxi Lights OFF 0 196
2026-07-31 20:10:46 Aircraft at gate/stand, ground services are moving into position, disembarkation has begun. Remaining FOB 2306kg FLYacars v1.3.5 0 196
viserfly

ACARS DATA

DATE IAS GS ALTITUDE FUEL CONSUMED OAT FLIGHT STATUS
2026-07-31 18:25:40 10 0 16 2 30 BOARDING
2026-07-31 18:26:10 12 0 16 4 30 BOARDING
2026-07-31 18:26:40 94 85 16 17 30 TAKEOFF
2026-07-31 18:27:10 199 187 951 44 25 TAKEOFF
2026-07-31 18:27:40 218 214 2719 66 22 CLIMB
2026-07-31 18:28:10 219 225 3762 79 20 CLIMB
2026-07-31 18:28:40 226 250 4794 93 18 CLIMB
2026-07-31 18:29:10 227 266 5803 107 16 CLIMB
2026-07-31 18:29:40 240 283 6814 123 15 CLIMB
2026-07-31 18:30:10 239 284 7824 136 13 CLIMB
2026-07-31 18:30:40 238 287 8821 149 12 CLIMB
2026-07-31 18:31:10 240 287 9807 163 10 CLIMB
2026-07-31 18:31:40 240 283 10800 176 9 CLIMB
2026-07-31 18:32:10 282 337 11847 197 7 CLIMB
2026-07-31 18:32:40 307 372 12890 217 5 CLIMB
2026-07-31 18:33:10 308 378 13891 234 3 CLIMB
2026-07-31 18:33:40 306 383 14886 250 2 CLIMB
2026-07-31 18:34:10 305 388 15887 267 0 CLIMB
2026-07-31 18:34:40 307 398 16884 284 -1 CLIMB
2026-07-31 18:35:10 306 404 17885 300 -2 CLIMB
2026-07-31 18:35:40 305 410 18880 316 -4 CLIMB
2026-07-31 18:36:10 308 419 19883 333 -6 CLIMB
2026-07-31 18:36:40 306 422 20883 348 -8 CLIMB
2026-07-31 18:37:10 305 427 21880 364 -10 CLIMB
2026-07-31 18:37:40 306 434 22877 380 -12 CLIMB
2026-07-31 18:38:10 306 439 23876 395 -14 CLIMB
2026-07-31 18:38:40 306 445 24874 411 -16 CLIMB
2026-07-31 18:39:10 306 450 25874 426 -19 CLIMB
2026-07-31 18:39:40 307 454 26873 441 -21 CLIMB
2026-07-31 18:40:10 307 459 27873 456 -24 CLIMB
2026-07-31 18:40:40 308 464 28872 471 -27 CLIMB
2026-07-31 18:41:10 307 468 29871 486 -29 CLIMB
2026-07-31 18:41:40 306 473 30867 501 -32 CLIMB
2026-07-31 18:42:10 307 480 31869 516 -35 CLIMB
2026-07-31 18:42:40 306 479 32863 530 -37 CLIMB
2026-07-31 18:43:10 306 480 33863 544 -39 CLIMB
2026-07-31 18:43:40 304 478 34860 557 -42 CLIMB
2026-07-31 18:44:10 295 467 35848 569 -44 CLIMB
2026-07-31 18:44:40 294 469 36480 581 -45 ENROUTE
2026-07-31 18:45:10 284 454 36482 589 -45 ENROUTE
2026-07-31 18:45:40 289 462 36486 600 -45 ENROUTE
2026-07-31 18:46:10 291 464 36495 610 -46 ENROUTE
2026-07-31 18:46:40 289 460 36491 619 -46 ENROUTE
2026-07-31 18:47:10 289 462 36491 629 -46 ENROUTE
2026-07-31 18:47:40 290 463 36492 639 -46 ENROUTE
2026-07-31 18:48:10 291 464 36493 649 -46 ENROUTE
2026-07-31 18:48:40 291 465 36494 659 -45 ENROUTE
2026-07-31 18:49:10 292 466 36495 669 -45 ENROUTE
2026-07-31 18:49:40 291 464 36495 679 -45 ENROUTE
2026-07-31 18:50:10 290 463 36493 689 -45 ENROUTE
2026-07-31 18:50:40 289 461 36492 699 -45 ENROUTE
2026-07-31 18:51:10 289 462 36490 708 -45 ENROUTE
2026-07-31 18:51:40 291 466 36493 719 -45 ENROUTE
2026-07-31 18:52:10 291 465 36496 729 -45 ENROUTE
2026-07-31 18:52:40 289 462 36492 738 -45 ENROUTE
2026-07-31 18:53:10 289 464 36492 748 -45 ENROUTE
2026-07-31 18:53:40 289 465 36492 758 -45 ENROUTE
2026-07-31 18:54:10 291 468 36495 768 -45 ENROUTE
2026-07-31 18:54:40 291 467 36496 778 -45 ENROUTE
2026-07-31 18:55:10 289 464 36493 788 -45 ENROUTE
2026-07-31 18:55:40 289 465 36493 798 -45 ENROUTE
2026-07-31 18:56:10 289 467 36494 808 -44 ENROUTE
2026-07-31 18:56:40 291 470 36495 818 -44 ENROUTE
2026-07-31 18:57:10 292 472 36497 828 -44 ENROUTE
2026-07-31 18:57:40 290 469 36496 838 -44 ENROUTE
2026-07-31 18:58:10 289 467 36494 847 -44 ENROUTE
2026-07-31 18:58:40 289 468 36493 857 -44 ENROUTE
2026-07-31 18:59:10 291 476 36499 868 -44 ENROUTE
2026-07-31 18:59:40 289 474 36503 878 -44 ENROUTE
2026-07-31 19:00:10 289 472 36499 887 -44 ENROUTE
2026-07-31 19:00:40 290 474 36500 897 -44 ENROUTE
2026-07-31 19:01:10 292 476 36503 907 -44 ENROUTE
2026-07-31 19:01:40 289 475 36501 917 -44 ENROUTE
2026-07-31 19:02:10 291 477 36501 927 -44 ENROUTE
2026-07-31 19:02:40 292 479 36503 937 -44 ENROUTE
2026-07-31 19:03:10 290 477 36504 947 -44 ENROUTE
2026-07-31 19:03:40 289 475 36500 957 -44 ENROUTE
2026-07-31 19:04:10 289 477 36504 967 -44 ENROUTE
2026-07-31 19:04:40 290 479 36507 977 -44 ENROUTE
2026-07-31 19:05:10 290 479 36507 987 -44 ENROUTE
2026-07-31 19:05:40 290 478 36506 997 -44 ENROUTE
2026-07-31 19:06:10 290 478 36506 1006 -44 ENROUTE
2026-07-31 19:06:40 289 477 36508 1016 -44 ENROUTE
2026-07-31 19:07:10 290 479 36509 1026 -44 ENROUTE
2026-07-31 19:07:40 291 481 36511 1036 -44 ENROUTE
2026-07-31 19:08:10 291 481 36513 1046 -44 ENROUTE
2026-07-31 19:08:40 290 479 36511 1056 -44 ENROUTE
2026-07-31 19:09:10 289 478 36510 1066 -44 ENROUTE
2026-07-31 19:09:40 289 478 36514 1076 -44 ENROUTE
2026-07-31 19:10:10 290 479 36515 1086 -44 ENROUTE
2026-07-31 19:10:40 291 480 36516 1096 -44 ENROUTE
2026-07-31 19:11:10 291 481 36517 1106 -44 ENROUTE
2026-07-31 19:11:40 291 482 36517 1116 -44 ENROUTE
2026-07-31 19:12:10 292 482 36518 1126 -44 ENROUTE
2026-07-31 19:12:40 286 473 36518 1134 -44 ENROUTE
2026-07-31 19:13:10 272 452 36509 1141 -44 ENROUTE
2026-07-31 19:13:40 274 455 36512 1150 -44 ENROUTE
2026-07-31 19:14:10 278 461 36520 1160 -44 ENROUTE
2026-07-31 19:14:40 276 458 36520 1169 -44 ENROUTE
2026-07-31 19:15:10 274 455 36516 1177 -44 ENROUTE
2026-07-31 19:15:40 275 457 36516 1187 -44 ENROUTE
2026-07-31 19:16:10 276 458 36518 1196 -44 ENROUTE
2026-07-31 19:16:40 277 460 36520 1205 -44 ENROUTE
2026-07-31 19:17:11 276 458 36521 1214 -44 ENROUTE
2026-07-31 19:17:41 274 455 36517 1223 -44 ENROUTE
2026-07-31 19:18:11 275 456 36517 1232 -44 ENROUTE
2026-07-31 19:18:40 276 458 36519 1241 -44 ENROUTE
2026-07-31 19:19:11 277 460 36521 1250 -44 ENROUTE
2026-07-31 19:19:41 276 459 36521 1259 -44 ENROUTE
2026-07-31 19:20:11 275 457 36519 1268 -44 ENROUTE
2026-07-31 19:20:41 274 456 36518 1277 -44 ENROUTE
2026-07-31 19:21:11 274 456 36517 1286 -44 ENROUTE
2026-07-31 19:21:40 275 458 36519 1295 -44 ENROUTE
2026-07-31 19:22:11 276 459 36521 1304 -44 ENROUTE
2026-07-31 19:22:41 277 460 36522 1314 -44 ENROUTE
2026-07-31 19:23:10 276 460 36522 1323 -44 ENROUTE
2026-07-31 19:23:41 276 459 36521 1331 -44 ENROUTE
2026-07-31 19:24:11 275 458 36520 1340 -44 ENROUTE
2026-07-31 19:24:41 274 457 36519 1349 -44 ENROUTE
2026-07-31 19:25:11 274 456 36519 1358 -44 ENROUTE
2026-07-31 19:25:41 274 456 36518 1367 -44 ENROUTE
2026-07-31 19:26:10 275 458 36524 1376 -44 ENROUTE
2026-07-31 19:26:41 276 460 36527 1386 -44 ENROUTE
2026-07-31 19:27:11 277 460 36528 1395 -44 ENROUTE
2026-07-31 19:27:40 276 459 36527 1404 -44 ENROUTE
2026-07-31 19:28:11 275 458 36526 1412 -44 ENROUTE
2026-07-31 19:28:41 274 457 36532 1421 -44 ENROUTE
2026-07-31 19:29:11 276 460 36533 1431 -44 ENROUTE
2026-07-31 19:29:41 277 462 36535 1440 -44 ENROUTE
2026-07-31 19:30:11 277 461 36537 1449 -44 ENROUTE
2026-07-31 19:30:41 275 459 36535 1458 -44 ENROUTE
2026-07-31 19:31:11 274 458 36533 1467 -44 ENROUTE
2026-07-31 19:31:41 275 461 36540 1476 -44 ENROUTE
2026-07-31 19:32:11 278 465 36547 1485 -44 ENROUTE
2026-07-31 19:32:41 280 468 36141 1494 -43 DESCENT
2026-07-31 19:33:11 270 456 35529 1499 -41 DESCENT
2026-07-31 19:33:41 251 428 34906 1501 -40 DESCENT
2026-07-31 19:34:11 237 408 34285 1503 -38 DESCENT
2026-07-31 19:34:41 233 406 33685 1507 -37 DESCENT
2026-07-31 19:35:11 230 396 33099 1510 -35 DESCENT
2026-07-31 19:35:41 219 375 32495 1511 -34 DESCENT
2026-07-31 19:36:11 209 356 31890 1512 -32 DESCENT
2026-07-31 19:36:41 202 341 31278 1513 -31 DESCENT
2026-07-31 19:37:11 198 330 30676 1514 -29 DESCENT
2026-07-31 19:37:41 197 325 30072 1516 -28 DESCENT
2026-07-31 19:38:11 199 324 29498 1519 -26 DESCENT
2026-07-31 19:38:41 202 324 28933 1522 -25 DESCENT
2026-07-31 19:39:11 203 321 28352 1525 -24 DESCENT
2026-07-31 19:39:41 201 317 27761 1528 -22 DESCENT
2026-07-31 19:40:11 200 315 27159 1530 -21 DESCENT
2026-07-31 19:40:41 200 312 26567 1533 -20 DESCENT
2026-07-31 19:41:11 201 311 25969 1536 -18 DESCENT
2026-07-31 19:41:41 200 311 25587 1537 -17 DESCENT
2026-07-31 19:42:11 202 310 25349 1538 -17 DESCENT
2026-07-31 19:42:41 200 309 24750 1541 -15 DESCENT
2026-07-31 19:43:11 202 306 24154 1543 -14 DESCENT
2026-07-31 19:43:41 201 299 23555 1545 -13 DESCENT
2026-07-31 19:44:11 200 294 22957 1547 -12 DESCENT
2026-07-31 19:44:41 200 290 22356 1549 -11 DESCENT
2026-07-31 19:45:11 199 287 21757 1551 -10 DESCENT
2026-07-31 19:45:41 205 285 20947 1554 -8 DESCENT
2026-07-31 19:46:11 211 288 19969 1555 -6 DESCENT
2026-07-31 19:46:41 216 291 18982 1557 -4 DESCENT
2026-07-31 19:47:11 220 292 17994 1558 -3 DESCENT
2026-07-31 19:47:41 224 284 16995 1560 -1 DESCENT
2026-07-31 19:48:11 226 281 16009 1561 0 DESCENT
2026-07-31 19:48:41 228 293 14989 1563 1 DESCENT
2026-07-31 19:49:11 197 261 13959 1565 3 DESCENT
2026-07-31 19:49:41 182 237 12937 1567 5 DESCENT
2026-07-31 19:50:11 179 229 11926 1569 6 DESCENT
2026-07-31 19:50:41 182 229 10931 1573 8 DESCENT
2026-07-31 19:51:11 184 229 9941 1578 10 DESCENT
2026-07-31 19:51:41 184 225 8952 1581 11 DESCENT
2026-07-31 19:52:11 183 212 7924 1585 13 DESCENT
2026-07-31 19:52:41 181 194 6960 1589 15 DESCENT
2026-07-31 19:53:11 184 193 5988 1592 17 DESCENT
2026-07-31 19:53:41 173 182 5017 1596 19 DESCENT
2026-07-31 19:54:11 171 181 4014 1602 21 DESCENT
2026-07-31 19:54:41 163 174 3317 1611 22 ENROUTE
2026-07-31 19:55:11 150 159 3332 1628 22 ENROUTE
2026-07-31 19:55:41 145 155 3324 1646 22 ENROUTE
2026-07-31 19:56:11 146 156 3339 1663 22 ENROUTE
2026-07-31 19:56:41 147 157 3336 1681 22 ENROUTE
2026-07-31 19:57:11 138 148 3315 1697 22 ENROUTE
2026-07-31 19:57:41 137 146 3319 1713 22 ENROUTE
2026-07-31 19:58:11 137 146 3321 1729 22 ENROUTE
2026-07-31 19:58:41 137 147 3322 1745 22 ENROUTE
2026-07-31 19:59:11 136 141 3238 1760 29 ENROUTE
2026-07-31 19:59:41 133 140 3233 1776 29 ENROUTE
2026-07-31 20:00:11 136 143 3246 1792 29 ENROUTE
2026-07-31 20:00:41 144 147 3112 1807 29 DESCENT
2026-07-31 20:01:11 145 149 2889 1823 28 DESCENT
2026-07-31 20:01:41 142 145 2755 1839 27 ENROUTE
2026-07-31 20:02:11 146 150 2530 1855 26 DESCENT
2026-07-31 20:02:41 156 163 2045 1871 26 APPROACH
2026-07-31 20:03:11 168 171 1195 1888 28 APPROACH
2026-07-31 20:03:41 139 137 462 1896 30 ON FINAL
2026-07-31 20:04:11 81 72 198 1902 30 ON FINAL
2026-07-31 20:04:41 27 20 191 1904 30 TAXI TO APRON
2026-07-31 20:05:11 20 9 188 1907 30 TAXI TO APRON
2026-07-31 20:05:41 1 1 185 1910 30 TAXI TO APRON
2026-07-31 20:06:11 7 8 180 1913 30 TAXI TO APRON
2026-07-31 20:06:41 7 8 178 1916 30 TAXI TO APRON
2026-07-31 20:07:11 3 13 180 1918 30 TAXI TO APRON
2026-07-31 20:07:41 5 9 181 1921 30 TAXI TO APRON
2026-07-31 20:08:11 3 14 179 1924 30 TAXI TO APRON
2026-07-31 20:08:41 0 2 187 1927 30 TAXI TO APRON
2026-07-31 20:09:11 6 15 190 1932 30 TAXI TO APRON
2026-07-31 20:09:41 7 9 193 1935 30 TAXI TO APRON
2026-07-31 20:10:11 7 8 195 1937 30 TAXI TO APRON
2026-07-31 20:10:41 0 0 196 1939 30 TAXI TO APRON
  • Join our VA!

    It has been 11 years of great learning, friendships, and stories.

  • Sign up now!